Terminal Aerodrome Forecast
Issued by NWS

Home | Current Version | Previous Version | Text Only | Print | Product List | Glossary On
Versions: 1 2 3 4 5 6 7 8 9 10 11 12 13 14 15 16 17 18 19 20 21 22 23
000
FTPA31 PHFO 052332
TAFHNY
TAF
PHNY 052332Z 0600/0624 25007KT P6SM SCT010 BKN035
      TEMPO 0600/0603 BKN010 OVC035
     FM060500 05005KT P6SM SCT025 SCT040
     FM062000 03008KT P6SM SCT025 BKN040=

USA.gov is the U.S. government's official web portal to all federal, state and local government web resources and services.